sensor_id;sensor_type;location;lat;lon;timestamp;temperature;humidity
19930;DHT22;10127;47.780;9.606;2023-02-15T00:00:54;1.90;99.90
19930;DHT22;10127;47.780;9.606;2023-02-15T00:03:22;1.90;99.90
19930;DHT22;10127;47.780;9.606;2023-02-15T00:05:48;2.10;99.90
19930;DHT22;10127;47.780;9.606;2023-02-15T00:08:13;2.10;99.90
19930;DHT22;10127;47.780;9.606;2023-02-15T00:10:39;2.20;99.90
19930;DHT22;10127;47.780;9.606;2023-02-15T00:13:04;2.20;99.90
19930;DHT22;10127;47.780;9.606;2023-02-15T00:15:30;2.10;99.90
19930;DHT22;10127;47.780;9.606;2023-02-15T00:17:56;2.30;99.90
19930;DHT22;10127;47.780;9.606;2023-02-15T00:20:22;2.40;99.90
19930;DHT22;10127;47.780;9.606;2023-02-15T00:22:48;2.40;99.90
19930;DHT22;10127;47.780;9.606;2023-02-15T00:25:13;2.40;99.90
19930;DHT22;10127;47.780;9.606;2023-02-15T00:27:39;2.30;99.90
19930;DHT22;10127;47.780;9.606;2023-02-15T00:30:04;2.40;99.90
19930;DHT22;10127;47.780;9.606;2023-02-15T00:32:31;2.20;99.90
19930;DHT22;10127;47.780;9.606;2023-02-15T00:34:56;2.20;99.90
19930;DHT22;10127;47.780;9.606;2023-02-15T00:37:22;2.20;99.90
19930;DHT22;10127;47.780;9.606;2023-02-15T00:39:47;2.20;99.90
19930;DHT22;10127;47.780;9.606;2023-02-15T00:42:13;2.00;99.90
19930;DHT22;10127;47.780;9.606;2023-02-15T00:44:38;2.10;99.90
19930;DHT22;10127;47.780;9.606;2023-02-15T00:47:04;2.00;99.90
19930;DHT22;10127;47.780;9.606;2023-02-15T00:49:29;2.10;99.90
19930;DHT22;10127;47.780;9.606;2023-02-15T00:51:55;2.30;99.90
19930;DHT22;10127;47.780;9.606;2023-02-15T00:54:21;2.20;99.90
19930;DHT22;10127;47.780;9.606;2023-02-15T00:56:46;2.20;99.90
19930;DHT22;10127;47.780;9.606;2023-02-15T00:59:12;1.80;99.90
19930;DHT22;10127;47.780;9.606;2023-02-15T01:01:37;1.80;99.90
19930;DHT22;10127;47.780;9.606;2023-02-15T01:04:03;1.80;99.90
19930;DHT22;10127;47.780;9.606;2023-02-15T01:06:28;1.70;99.90
19930;DHT22;10127;47.780;9.606;2023-02-15T01:08:54;1.70;99.90
19930;DHT22;10127;47.780;9.606;2023-02-15T01:11:21;1.70;99.90
19930;DHT22;10127;47.780;9.606;2023-02-15T01:13:52;1.60;99.90
19930;DHT22;10127;47.780;9.606;2023-02-15T01:16:18;1.40;99.90
19930;DHT22;10127;47.780;9.606;2023-02-15T01:18:44;1.50;99.90
19930;DHT22;10127;47.780;9.606;2023-02-15T01:21:12;1.40;99.90
19930;DHT22;10127;47.780;9.606;2023-02-15T01:23:39;1.30;99.90
19930;DHT22;10127;47.780;9.606;2023-02-15T01:26:05;1.50;99.90
19930;DHT22;10127;47.780;9.606;2023-02-15T01:28:31;1.50;99.90
19930;DHT22;10127;47.780;9.606;2023-02-15T01:30:57;1.40;99.90
19930;DHT22;10127;47.780;9.606;2023-02-15T01:33:24;1.20;99.90
19930;DHT22;10127;47.780;9.606;2023-02-15T01:35:56;1.10;99.90
19930;DHT22;10127;47.780;9.606;2023-02-15T01:38:22;1.10;99.90
19930;DHT22;10127;47.780;9.606;2023-02-15T01:40:51;1.10;99.90
19930;DHT22;10127;47.780;9.606;2023-02-15T01:43:16;1.00;99.90
19930;DHT22;10127;47.780;9.606;2023-02-15T01:45:42;1.20;99.90
19930;DHT22;10127;47.780;9.606;2023-02-15T01:48:24;1.30;99.90
19930;DHT22;10127;47.780;9.606;2023-02-15T01:51:02;1.40;99.90
19930;DHT22;10127;47.780;9.606;2023-02-15T01:53:34;1.40;99.90
19930;DHT22;10127;47.780;9.606;2023-02-15T01:56:06;1.70;99.90
19930;DHT22;10127;47.780;9.606;2023-02-15T01:58:35;1.70;99.90
19930;DHT22;10127;47.780;9.606;2023-02-15T02:01:01;1.50;99.90
19930;DHT22;10127;47.780;9.606;2023-02-15T02:06:31;1.30;99.90
19930;DHT22;10127;47.780;9.606;2023-02-15T02:08:57;1.30;99.90
19930;DHT22;10127;47.780;9.606;2023-02-15T02:11:23;1.20;99.90
19930;DHT22;10127;47.780;9.606;2023-02-15T02:13:50;1.10;99.90
19930;DHT22;10127;47.780;9.606;2023-02-15T02:16:27;1.10;99.90
19930;DHT22;10127;47.780;9.606;2023-02-15T02:27:48;1.20;99.90
19930;DHT22;10127;47.780;9.606;2023-02-15T02:30:34;1.50;99.90
19930;DHT22;10127;47.780;9.606;2023-02-15T02:39:12;1.70;99.90
19930;DHT22;10127;47.780;9.606;2023-02-15T02:42:01;1.60;99.90
19930;DHT22;10127;47.780;9.606;2023-02-15T02:44:44;1.40;99.90
19930;DHT22;10127;47.780;9.606;2023-02-15T02:47:23;1.40;99.90
19930;DHT22;10127;47.780;9.606;2023-02-15T02:49:58;1.40;99.90
19930;DHT22;10127;47.780;9.606;2023-02-15T03:11:12;0.90;99.90
19930;DHT22;10127;47.780;9.606;2023-02-15T03:13:39;1.10;99.90
19930;DHT22;10127;47.780;9.606;2023-02-15T03:16:06;1.20;99.90
19930;DHT22;10127;47.780;9.606;2023-02-15T03:19:00;1.10;99.90
19930;DHT22;10127;47.780;9.606;2023-02-15T03:24:16;1.40;99.90
19930;DHT22;10127;47.780;9.606;2023-02-15T03:26:45;1.30;99.90
19930;DHT22;10127;47.780;9.606;2023-02-15T03:29:13;1.10;99.90
19930;DHT22;10127;47.780;9.606;2023-02-15T03:31:43;1.10;99.90
19930;DHT22;10127;47.780;9.606;2023-02-15T03:34:13;1.10;99.90
19930;DHT22;10127;47.780;9.606;2023-02-15T03:36:52;1.20;99.90
19930;DHT22;10127;47.780;9.606;2023-02-15T03:40:06;1.40;99.90
19930;DHT22;10127;47.780;9.606;2023-02-15T03:42:25;1.80;99.90
19930;DHT22;10127;47.780;9.606;2023-02-15T03:47:27;1.70;99.90
19930;DHT22;10127;47.780;9.606;2023-02-15T03:50:07;1.40;99.90
19930;DHT22;10127;47.780;9.606;2023-02-15T03:52:55;1.50;99.90
19930;DHT22;10127;47.780;9.606;2023-02-15T03:55:22;1.40;99.90
19930;DHT22;10127;47.780;9.606;2023-02-15T03:57:48;1.30;99.90
19930;DHT22;10127;47.780;9.606;2023-02-15T04:00:36;1.20;99.90
19930;DHT22;10127;47.780;9.606;2023-02-15T04:03:22;1.30;99.90
19930;DHT22;10127;47.780;9.606;2023-02-15T04:05:51;1.10;99.90
19930;DHT22;10127;47.780;9.606;2023-02-15T04:08:17;1.20;99.90
19930;DHT22;10127;47.780;9.606;2023-02-15T04:10:42;1.30;99.90
19930;DHT22;10127;47.780;9.606;2023-02-15T04:13:38;1.20;99.90
19930;DHT22;10127;47.780;9.606;2023-02-15T04:16:03;1.20;99.90
19930;DHT22;10127;47.780;9.606;2023-02-15T04:18:36;1.20;99.90
19930;DHT22;10127;47.780;9.606;2023-02-15T04:21:22;1.50;99.90
19930;DHT22;10127;47.780;9.606;2023-02-15T04:24:07;1.60;99.90
19930;DHT22;10127;47.780;9.606;2023-02-15T04:26:51;1.70;99.90
19930;DHT22;10127;47.780;9.606;2023-02-15T04:29:21;1.50;99.90
19930;DHT22;10127;47.780;9.606;2023-02-15T04:31:47;1.50;99.90
19930;DHT22;10127;47.780;9.606;2023-02-15T04:34:13;1.30;99.90
19930;DHT22;10127;47.780;9.606;2023-02-15T04:36:39;1.50;99.90
19930;DHT22;10127;47.780;9.606;2023-02-15T04:39:06;1.40;99.90
19930;DHT22;10127;47.780;9.606;2023-02-15T04:41:32;1.50;99.90
19930;DHT22;10127;47.780;9.606;2023-02-15T04:43:58;1.50;99.90
19930;DHT22;10127;47.780;9.606;2023-02-15T04:46:25;1.50;99.90
19930;DHT22;10127;47.780;9.606;2023-02-15T04:48:50;1.60;99.90
19930;DHT22;10127;47.780;9.606;2023-02-15T04:51:16;1.60;99.90
19930;DHT22;10127;47.780;9.606;2023-02-15T04:53:41;1.40;99.90
19930;DHT22;10127;47.780;9.606;2023-02-15T04:56:07;1.50;99.90
19930;DHT22;10127;47.780;9.606;2023-02-15T04:58:32;1.40;99.90
19930;DHT22;10127;47.780;9.606;2023-02-15T05:00:58;1.40;99.90
19930;DHT22;10127;47.780;9.606;2023-02-15T05:03:24;1.40;99.90
19930;DHT22;10127;47.780;9.606;2023-02-15T05:05:50;1.40;99.90
19930;DHT22;10127;47.780;9.606;2023-02-15T05:08:16;1.40;99.90
19930;DHT22;10127;47.780;9.606;2023-02-15T05:10:42;1.60;99.90
19930;DHT22;10127;47.780;9.606;2023-02-15T05:13:08;1.70;99.90
19930;DHT22;10127;47.780;9.606;2023-02-15T05:15:33;1.80;99.90
19930;DHT22;10127;47.780;9.606;2023-02-15T05:17:59;1.80;99.90
19930;DHT22;10127;47.780;9.606;2023-02-15T05:20:24;1.70;99.90
19930;DHT22;10127;47.780;9.606;2023-02-15T05:22:53;1.70;99.90
19930;DHT22;10127;47.780;9.606;2023-02-15T05:25:19;1.90;99.90
19930;DHT22;10127;47.780;9.606;2023-02-15T05:28:03;1.70;99.90
19930;DHT22;10127;47.780;9.606;2023-02-15T05:30:45;1.40;99.90
19930;DHT22;10127;47.780;9.606;2023-02-15T05:33:10;1.60;99.90
19930;DHT22;10127;47.780;9.606;2023-02-15T05:35:36;1.50;99.90
19930;DHT22;10127;47.780;9.606;2023-02-15T05:38:01;1.40;99.90
19930;DHT22;10127;47.780;9.606;2023-02-15T05:40:27;1.40;99.90
19930;DHT22;10127;47.780;9.606;2023-02-15T05:42:53;1.60;99.90
19930;DHT22;10127;47.780;9.606;2023-02-15T05:45:18;1.80;99.90
19930;DHT22;10127;47.780;9.606;2023-02-15T05:47:44;1.90;99.90
19930;DHT22;10127;47.780;9.606;2023-02-15T05:50:10;1.90;99.90
19930;DHT22;10127;47.780;9.606;2023-02-15T05:52:36;1.90;99.90
19930;DHT22;10127;47.780;9.606;2023-02-15T05:55:02;2.00;99.90
19930;DHT22;10127;47.780;9.606;2023-02-15T05:57:30;1.80;99.90
19930;DHT22;10127;47.780;9.606;2023-02-15T05:59:55;1.80;99.90
19930;DHT22;10127;47.780;9.606;2023-02-15T06:02:21;1.90;99.90
19930;DHT22;10127;47.780;9.606;2023-02-15T06:04:47;1.90;99.90
19930;DHT22;10127;47.780;9.606;2023-02-15T06:07:12;2.00;99.90
19930;DHT22;10127;47.780;9.606;2023-02-15T06:09:38;2.00;99.90
19930;DHT22;10127;47.780;9.606;2023-02-15T06:12:03;1.80;99.90
19930;DHT22;10127;47.780;9.606;2023-02-15T06:14:29;1.90;99.90
19930;DHT22;10127;47.780;9.606;2023-02-15T06:16:54;2.10;99.90
19930;DHT22;10127;47.780;9.606;2023-02-15T06:19:20;2.20;99.90
19930;DHT22;10127;47.780;9.606;2023-02-15T06:21:46;2.20;99.90
19930;DHT22;10127;47.780;9.606;2023-02-15T06:24:12;2.10;99.90
19930;DHT22;10127;47.780;9.606;2023-02-15T06:26:38;2.10;99.90
19930;DHT22;10127;47.780;9.606;2023-02-15T06:29:03;2.00;99.90
19930;DHT22;10127;47.780;9.606;2023-02-15T06:31:29;1.80;99.90
19930;DHT22;10127;47.780;9.606;2023-02-15T06:33:54;1.70;99.90
19930;DHT22;10127;47.780;9.606;2023-02-15T06:36:27;1.80;99.90
19930;DHT22;10127;47.780;9.606;2023-02-15T06:38:54;1.90;99.90
19930;DHT22;10127;47.780;9.606;2023-02-15T06:41:19;1.90;99.90
19930;DHT22;10127;47.780;9.606;2023-02-15T06:43:45;1.70;99.90
19930;DHT22;10127;47.780;9.606;2023-02-15T06:46:10;1.70;99.90
19930;DHT22;10127;47.780;9.606;2023-02-15T06:48:36;1.70;99.90
19930;DHT22;10127;47.780;9.606;2023-02-15T06:51:01;1.90;99.90
19930;DHT22;10127;47.780;9.606;2023-02-15T06:53:27;1.90;99.90
19930;DHT22;10127;47.780;9.606;2023-02-15T06:55:53;1.80;99.90
19930;DHT22;10127;47.780;9.606;2023-02-15T06:58:25;1.90;99.90
19930;DHT22;10127;47.780;9.606;2023-02-15T07:00:51;1.80;99.90
19930;DHT22;10127;47.780;9.606;2023-02-15T07:03:17;2.00;99.90
19930;DHT22;10127;47.780;9.606;2023-02-15T07:05:44;1.90;99.90
19930;DHT22;10127;47.780;9.606;2023-02-15T07:08:10;2.20;99.90
19930;DHT22;10127;47.780;9.606;2023-02-15T07:10:36;2.00;99.90
19930;DHT22;10127;47.780;9.606;2023-02-15T07:13:01;2.10;99.90
19930;DHT22;10127;47.780;9.606;2023-02-15T07:15:27;2.10;99.90
19930;DHT22;10127;47.780;9.606;2023-02-15T07:17:53;1.90;99.90
19930;DHT22;10127;47.780;9.606;2023-02-15T07:20:20;1.90;99.90
19930;DHT22;10127;47.780;9.606;2023-02-15T07:22:47;2.00;99.90
19930;DHT22;10127;47.780;9.606;2023-02-15T07:25:13;2.00;99.90
19930;DHT22;10127;47.780;9.606;2023-02-15T07:27:39;2.30;99.90
19930;DHT22;10127;47.780;9.606;2023-02-15T07:30:07;2.30;99.90
19930;DHT22;10127;47.780;9.606;2023-02-15T07:32:33;2.40;99.90
19930;DHT22;10127;47.780;9.606;2023-02-15T07:34:59;2.40;99.90
19930;DHT22;10127;47.780;9.606;2023-02-15T07:37:25;2.40;99.90
19930;DHT22;10127;47.780;9.606;2023-02-15T07:39:51;2.50;99.90
19930;DHT22;10127;47.780;9.606;2023-02-15T07:42:16;2.50;99.90
19930;DHT22;10127;47.780;9.606;2023-02-15T07:44:43;2.60;99.90
19930;DHT22;10127;47.780;9.606;2023-02-15T07:47:08;2.70;99.90
19930;DHT22;10127;47.780;9.606;2023-02-15T07:49:34;2.50;99.90
19930;DHT22;10127;47.780;9.606;2023-02-15T07:52:01;2.40;99.90
19930;DHT22;10127;47.780;9.606;2023-02-15T07:54:27;2.50;99.90
19930;DHT22;10127;47.780;9.606;2023-02-15T07:56:52;2.70;99.90
19930;DHT22;10127;47.780;9.606;2023-02-15T07:59:18;2.90;99.90
19930;DHT22;10127;47.780;9.606;2023-02-15T08:01:45;2.90;99.90
19930;DHT22;10127;47.780;9.606;2023-02-15T08:04:10;2.50;99.90
19930;DHT22;10127;47.780;9.606;2023-02-15T08:06:36;2.60;99.90
19930;DHT22;10127;47.780;9.606;2023-02-15T08:09:07;2.50;99.90
19930;DHT22;10127;47.780;9.606;2023-02-15T08:11:35;2.60;99.90
19930;DHT22;10127;47.780;9.606;2023-02-15T08:14:17;2.50;99.90
19930;DHT22;10127;47.780;9.606;2023-02-15T08:19:25;2.50;99.90
19930;DHT22;10127;47.780;9.606;2023-02-15T08:21:56;2.40;99.90
19930;DHT22;10127;47.780;9.606;2023-02-15T08:24:29;2.20;99.90
19930;DHT22;10127;47.780;9.606;2023-02-15T08:26:55;2.20;99.90
19930;DHT22;10127;47.780;9.606;2023-02-15T08:29:23;2.00;99.90
19930;DHT22;10127;47.780;9.606;2023-02-15T08:31:54;2.10;99.90
19930;DHT22;10127;47.780;9.606;2023-02-15T08:34:24;2.50;99.90
19930;DHT22;10127;47.780;9.606;2023-02-15T08:36:49;2.60;99.90
19930;DHT22;10127;47.780;9.606;2023-02-15T08:39:16;2.70;99.90
19930;DHT22;10127;47.780;9.606;2023-02-15T08:41:43;2.80;99.90
19930;DHT22;10127;47.780;9.606;2023-02-15T08:44:09;2.80;99.90
19930;DHT22;10127;47.780;9.606;2023-02-15T08:46:39;2.50;99.90
19930;DHT22;10127;47.780;9.606;2023-02-15T08:49:05;2.60;99.90
19930;DHT22;10127;47.780;9.606;2023-02-15T08:51:34;2.40;99.90
19930;DHT22;10127;47.780;9.606;2023-02-15T08:54:02;2.60;99.90
19930;DHT22;10127;47.780;9.606;2023-02-15T08:56:32;2.80;99.90
19930;DHT22;10127;47.780;9.606;2023-02-15T08:58:58;2.80;99.90
19930;DHT22;10127;47.780;9.606;2023-02-15T09:01:26;2.80;99.90
19930;DHT22;10127;47.780;9.606;2023-02-15T09:03:57;2.50;99.90
19930;DHT22;10127;47.780;9.606;2023-02-15T09:06:23;2.70;99.90
19930;DHT22;10127;47.780;9.606;2023-02-15T09:08:49;2.70;99.90
19930;DHT22;10127;47.780;9.606;2023-02-15T09:12:01;2.60;99.90
19930;DHT22;10127;47.780;9.606;2023-02-15T09:14:13;2.70;99.90
19930;DHT22;10127;47.780;9.606;2023-02-15T09:16:40;2.80;99.90
19930;DHT22;10127;47.780;9.606;2023-02-15T09:19:06;2.80;99.90
19930;DHT22;10127;47.780;9.606;2023-02-15T09:21:33;2.80;99.90
19930;DHT22;10127;47.780;9.606;2023-02-15T09:24:03;2.90;99.90
19930;DHT22;10127;47.780;9.606;2023-02-15T09:26:31;3.10;99.90
19930;DHT22;10127;47.780;9.606;2023-02-15T09:28:59;3.20;99.90
19930;DHT22;10127;47.780;9.606;2023-02-15T09:31:47;3.30;99.90
19930;DHT22;10127;47.780;9.606;2023-02-15T09:34:15;3.10;99.90
19930;DHT22;10127;47.780;9.606;2023-02-15T09:36:44;3.20;99.90
19930;DHT22;10127;47.780;9.606;2023-02-15T09:44:47;3.60;99.90
19930;DHT22;10127;47.780;9.606;2023-02-15T09:47:55;3.90;99.90
19930;DHT22;10127;47.780;9.606;2023-02-15T09:53:30;3.90;99.90
19930;DHT22;10127;47.780;9.606;2023-02-15T09:56:25;4.00;99.90
19930;DHT22;10127;47.780;9.606;2023-02-15T10:07:36;4.00;99.90
19930;DHT22;10127;47.780;9.606;2023-02-15T10:10:54;3.80;99.90
19930;DHT22;10127;47.780;9.606;2023-02-15T10:13:13;4.00;99.90
19930;DHT22;10127;47.780;9.606;2023-02-15T10:15:52;4.00;99.90
19930;DHT22;10127;47.780;9.606;2023-02-15T10:21:39;3.80;99.90
19930;DHT22;10127;47.780;9.606;2023-02-15T10:26:47;4.10;99.90
19930;DHT22;10127;47.780;9.606;2023-02-15T10:29:35;4.30;99.90
19930;DHT22;10127;47.780;9.606;2023-02-15T10:32:24;4.30;99.90
19930;DHT22;10127;47.780;9.606;2023-02-15T10:35:03;4.10;99.90
19930;DHT22;10127;47.780;9.606;2023-02-15T10:37:53;4.10;99.90
19930;DHT22;10127;47.780;9.606;2023-02-15T10:51:02;4.00;99.90
19930;DHT22;10127;47.780;9.606;2023-02-15T10:56:16;4.30;99.90
19930;DHT22;10127;47.780;9.606;2023-02-15T11:07:12;4.40;99.90
19930;DHT22;10127;47.780;9.606;2023-02-15T11:09:50;4.60;99.90
19930;DHT22;10127;47.780;9.606;2023-02-15T11:12:22;4.80;99.90
19930;DHT22;10127;47.780;9.606;2023-02-15T11:14:57;5.30;99.90
19930;DHT22;10127;47.780;9.606;2023-02-15T11:17:33;5.00;99.90
19930;DHT22;10127;47.780;9.606;2023-02-15T11:20:08;5.00;99.90
19930;DHT22;10127;47.780;9.606;2023-02-15T11:22:35;5.30;99.90
19930;DHT22;10127;47.780;9.606;2023-02-15T11:25:04;4.90;99.90
19930;DHT22;10127;47.780;9.606;2023-02-15T11:27:39;5.10;99.90
19930;DHT22;10127;47.780;9.606;2023-02-15T11:30:14;5.00;99.90
19930;DHT22;10127;47.780;9.606;2023-02-15T11:32:45;5.00;99.90
19930;DHT22;10127;47.780;9.606;2023-02-15T11:37:50;5.30;99.90
19930;DHT22;10127;47.780;9.606;2023-02-15T11:40:47;5.60;99.90
19930;DHT22;10127;47.780;9.606;2023-02-15T11:43:17;5.30;99.90
19930;DHT22;10127;47.780;9.606;2023-02-15T11:45:46;5.10;99.90
19930;DHT22;10127;47.780;9.606;2023-02-15T11:48:13;4.80;99.90
19930;DHT22;10127;47.780;9.606;2023-02-15T11:50:40;4.90;99.90
19930;DHT22;10127;47.780;9.606;2023-02-15T11:53:14;5.30;99.90
19930;DHT22;10127;47.780;9.606;2023-02-15T11:55:45;5.20;99.90
19930;DHT22;10127;47.780;9.606;2023-02-15T12:01:08;5.20;99.90
19930;DHT22;10127;47.780;9.606;2023-02-15T12:04:19;5.10;99.90
19930;DHT22;10127;47.780;9.606;2023-02-15T12:06:51;5.50;99.90
19930;DHT22;10127;47.780;9.606;2023-02-15T12:11:52;5.80;99.90
19930;DHT22;10127;47.780;9.606;2023-02-15T12:14:18;5.80;99.90
19930;DHT22;10127;47.780;9.606;2023-02-15T12:16:48;5.80;99.90
19930;DHT22;10127;47.780;9.606;2023-02-15T12:19:33;6.00;99.90
19930;DHT22;10127;47.780;9.606;2023-02-15T12:22:04;6.20;99.90
19930;DHT22;10127;47.780;9.606;2023-02-15T12:24:32;6.00;99.90
19930;DHT22;10127;47.780;9.606;2023-02-15T12:27:02;5.70;99.90
19930;DHT22;10127;47.780;9.606;2023-02-15T12:29:50;5.60;99.90
19930;DHT22;10127;47.780;9.606;2023-02-15T12:32:29;5.40;99.90
19930;DHT22;10127;47.780;9.606;2023-02-15T12:35:10;5.80;99.90
19930;DHT22;10127;47.780;9.606;2023-02-15T12:37:39;5.90;99.90
19930;DHT22;10127;47.780;9.606;2023-02-15T12:40:23;5.50;99.90
19930;DHT22;10127;47.780;9.606;2023-02-15T12:42:49;5.40;99.90
19930;DHT22;10127;47.780;9.606;2023-02-15T12:45:32;5.50;99.90
19930;DHT22;10127;47.780;9.606;2023-02-15T12:48:18;5.80;99.90
19930;DHT22;10127;47.780;9.606;2023-02-15T12:50:46;5.80;99.90
19930;DHT22;10127;47.780;9.606;2023-02-15T12:53:31;5.90;99.90
19930;DHT22;10127;47.780;9.606;2023-02-15T12:55:59;6.00;99.90
19930;DHT22;10127;47.780;9.606;2023-02-15T12:58:30;6.00;99.90
19930;DHT22;10127;47.780;9.606;2023-02-15T13:01:17;6.00;99.90
19930;DHT22;10127;47.780;9.606;2023-02-15T13:04:06;5.90;99.90
19930;DHT22;10127;47.780;9.606;2023-02-15T13:06:49;5.70;99.90
19930;DHT22;10127;47.780;9.606;2023-02-15T13:09:38;5.70;99.90
19930;DHT22;10127;47.780;9.606;2023-02-15T13:14:49;5.60;99.90
19930;DHT22;10127;47.780;9.606;2023-02-15T13:17:29;5.60;99.90
19930;DHT22;10127;47.780;9.606;2023-02-15T13:20:00;5.60;99.90
19930;DHT22;10127;47.780;9.606;2023-02-15T13:22:40;5.70;99.90
19930;DHT22;10127;47.780;9.606;2023-02-15T13:25:25;5.70;99.90
19930;DHT22;10127;47.780;9.606;2023-02-15T13:27:54;5.80;99.90
19930;DHT22;10127;47.780;9.606;2023-02-15T13:30:38;5.90;99.90
19930;DHT22;10127;47.780;9.606;2023-02-15T13:35:45;6.10;99.90
19930;DHT22;10127;47.780;9.606;2023-02-15T13:41:28;6.30;99.90
19930;DHT22;10127;47.780;9.606;2023-02-15T13:44:27;6.30;99.90
19930;DHT22;10127;47.780;9.606;2023-02-15T13:52:30;6.70;99.90
19930;DHT22;10127;47.780;9.606;2023-02-15T14:15:28;7.60;99.90
19930;DHT22;10127;47.780;9.606;2023-02-15T14:26:09;7.60;99.90
19930;DHT22;10127;47.780;9.606;2023-02-15T14:31:14;7.70;99.90
19930;DHT22;10127;47.780;9.606;2023-02-15T14:33:47;7.80;99.90
19930;DHT22;10127;47.780;9.606;2023-02-15T14:36:18;8.00;99.90
19930;DHT22;10127;47.780;9.606;2023-02-15T14:41:49;8.20;99.90
19930;DHT22;10127;47.780;9.606;2023-02-15T14:44:43;8.20;99.90
19930;DHT22;10127;47.780;9.606;2023-02-15T14:49:42;8.30;99.90
19930;DHT22;10127;47.780;9.606;2023-02-15T14:52:12;8.40;99.90
19930;DHT22;10127;47.780;9.606;2023-02-15T15:02:46;8.80;99.90
19930;DHT22;10127;47.780;9.606;2023-02-15T15:05:34;8.70;99.90
19930;DHT22;10127;47.780;9.606;2023-02-15T15:08:02;8.60;99.90
19930;DHT22;10127;47.780;9.606;2023-02-15T15:10:46;8.60;99.90
19930;DHT22;10127;47.780;9.606;2023-02-15T15:13:42;8.80;99.90
19930;DHT22;10127;47.780;9.606;2023-02-15T15:19:08;8.90;99.90
19930;DHT22;10127;47.780;9.606;2023-02-15T15:49:20;8.60;99.90
19930;DHT22;10127;47.780;9.606;2023-02-15T15:51:46;8.60;99.90
19930;DHT22;10127;47.780;9.606;2023-02-15T15:54:18;8.50;99.90
19930;DHT22;10127;47.780;9.606;2023-02-15T15:56:47;8.20;99.90
19930;DHT22;10127;47.780;9.606;2023-02-15T15:59:28;8.10;99.90
19930;DHT22;10127;47.780;9.606;2023-02-15T16:01:54;7.90;99.90
19930;DHT22;10127;47.780;9.606;2023-02-15T16:04:31;7.80;99.90
19930;DHT22;10127;47.780;9.606;2023-02-15T16:09:54;7.40;99.90
19930;DHT22;10127;47.780;9.606;2023-02-15T16:12:20;7.30;99.90
19930;DHT22;10127;47.780;9.606;2023-02-15T16:14:46;7.20;99.90
19930;DHT22;10127;47.780;9.606;2023-02-15T16:17:25;7.10;99.90
19930;DHT22;10127;47.780;9.606;2023-02-15T16:19:53;7.10;99.90
19930;DHT22;10127;47.780;9.606;2023-02-15T16:22:24;7.00;99.90
19930;DHT22;10127;47.780;9.606;2023-02-15T16:25:17;6.90;99.90
19930;DHT22;10127;47.780;9.606;2023-02-15T16:27:46;6.80;99.90
19930;DHT22;10127;47.780;9.606;2023-02-15T16:33:10;6.60;99.90
19930;DHT22;10127;47.780;9.606;2023-02-15T16:35:39;6.40;99.90
19930;DHT22;10127;47.780;9.606;2023-02-15T16:38:08;6.20;99.90
19930;DHT22;10127;47.780;9.606;2023-02-15T16:40:52;6.20;99.90
19930;DHT22;10127;47.780;9.606;2023-02-15T16:43:25;6.10;99.90
19930;DHT22;10127;47.780;9.606;2023-02-15T16:45:55;6.00;99.90
19930;DHT22;10127;47.780;9.606;2023-02-15T16:48:25;5.90;99.90
19930;DHT22;10127;47.780;9.606;2023-02-15T16:50:55;5.80;99.90
19930;DHT22;10127;47.780;9.606;2023-02-15T16:53:25;5.70;99.90
19930;DHT22;10127;47.780;9.606;2023-02-15T16:55:54;5.50;99.90
19930;DHT22;10127;47.780;9.606;2023-02-15T16:58:37;5.40;99.90
19930;DHT22;10127;47.780;9.606;2023-02-15T17:01:07;5.30;99.90
19930;DHT22;10127;47.780;9.606;2023-02-15T17:03:34;5.10;99.90
19930;DHT22;10127;47.780;9.606;2023-02-15T17:06:01;5.00;99.90
19930;DHT22;10127;47.780;9.606;2023-02-15T17:08:33;4.90;99.90
19930;DHT22;10127;47.780;9.606;2023-02-15T17:13:26;4.80;99.90
19930;DHT22;10127;47.780;9.606;2023-02-15T17:18:24;4.70;99.90
19930;DHT22;10127;47.780;9.606;2023-02-15T17:20:52;4.50;99.90
19930;DHT22;10127;47.780;9.606;2023-02-15T17:23:22;4.40;99.90
19930;DHT22;10127;47.780;9.606;2023-02-15T17:25:51;4.30;99.90
19930;DHT22;10127;47.780;9.606;2023-02-15T17:28:30;4.30;99.90
19930;DHT22;10127;47.780;9.606;2023-02-15T17:30:57;4.30;99.90
19930;DHT22;10127;47.780;9.606;2023-02-15T17:33:36;4.20;99.90
19930;DHT22;10127;47.780;9.606;2023-02-15T17:36:17;4.20;99.90
19930;DHT22;10127;47.780;9.606;2023-02-15T17:41:33;4.20;99.90
19930;DHT22;10127;47.780;9.606;2023-02-15T17:44:01;4.10;99.90
19930;DHT22;10127;47.780;9.606;2023-02-15T17:46:32;4.00;99.90
19930;DHT22;10127;47.780;9.606;2023-02-15T17:49:00;3.90;99.90
19930;DHT22;10127;47.780;9.606;2023-02-15T17:51:26;3.90;99.90
19930;DHT22;10127;47.780;9.606;2023-02-15T17:53:52;3.80;99.90
19930;DHT22;10127;47.780;9.606;2023-02-15T17:56:37;3.70;99.90
19930;DHT22;10127;47.780;9.606;2023-02-15T17:59:03;3.60;99.90
19930;DHT22;10127;47.780;9.606;2023-02-15T18:01:33;3.60;99.90
19930;DHT22;10127;47.780;9.606;2023-02-15T18:04:19;3.50;99.90
19930;DHT22;10127;47.780;9.606;2023-02-15T18:07:03;3.50;99.90
19930;DHT22;10127;47.780;9.606;2023-02-15T18:09:48;3.40;99.90
19930;DHT22;10127;47.780;9.606;2023-02-15T18:12:34;3.40;99.90
19930;DHT22;10127;47.780;9.606;2023-02-15T18:15:01;3.20;99.90
19930;DHT22;10127;47.780;9.606;2023-02-15T18:17:39;3.10;99.90
19930;DHT22;10127;47.780;9.606;2023-02-15T18:22:43;3.00;99.90
19930;DHT22;10127;47.780;9.606;2023-02-15T18:25:13;2.90;99.90
19930;DHT22;10127;47.780;9.606;2023-02-15T18:27:39;2.90;99.90
19930;DHT22;10127;47.780;9.606;2023-02-15T18:30:06;2.90;99.90
19930;DHT22;10127;47.780;9.606;2023-02-15T18:32:35;2.80;99.90
19930;DHT22;10127;47.780;9.606;2023-02-15T18:35:02;2.80;99.90
19930;DHT22;10127;47.780;9.606;2023-02-15T18:37:30;2.70;99.90
19930;DHT22;10127;47.780;9.606;2023-02-15T18:39:57;2.70;99.90
19930;DHT22;10127;47.780;9.606;2023-02-15T18:42:26;2.70;99.90
19930;DHT22;10127;47.780;9.606;2023-02-15T18:44:59;2.70;99.90
19930;DHT22;10127;47.780;9.606;2023-02-15T18:47:25;2.60;99.90
19930;DHT22;10127;47.780;9.606;2023-02-15T18:49:51;2.60;99.90
19930;DHT22;10127;47.780;9.606;2023-02-15T18:52:19;2.60;99.90
19930;DHT22;10127;47.780;9.606;2023-02-15T18:54:45;2.40;99.90
19930;DHT22;10127;47.780;9.606;2023-02-15T18:57:13;2.30;99.90
19930;DHT22;10127;47.780;9.606;2023-02-15T18:59:40;2.30;99.90
19930;DHT22;10127;47.780;9.606;2023-02-15T19:02:12;2.20;99.90
19930;DHT22;10127;47.780;9.606;2023-02-15T19:04:37;2.10;99.90
19930;DHT22;10127;47.780;9.606;2023-02-15T19:07:03;2.10;99.90
19930;DHT22;10127;47.780;9.606;2023-02-15T19:09:29;2.10;99.90
19930;DHT22;10127;47.780;9.606;2023-02-15T19:11:55;2.10;99.90
19930;DHT22;10127;47.780;9.606;2023-02-15T19:14:30;2.00;99.90
19930;DHT22;10127;47.780;9.606;2023-02-15T19:16:58;1.80;99.90
19930;DHT22;10127;47.780;9.606;2023-02-15T19:19:25;1.70;99.90
19930;DHT22;10127;47.780;9.606;2023-02-15T19:21:51;1.60;99.90
19930;DHT22;10127;47.780;9.606;2023-02-15T19:24:30;1.60;99.90
19930;DHT22;10127;47.780;9.606;2023-02-15T19:26:58;1.60;99.90
19930;DHT22;10127;47.780;9.606;2023-02-15T19:29:26;1.60;99.90
19930;DHT22;10127;47.780;9.606;2023-02-15T19:31:52;1.50;99.90